Time;durP1;ratioP1;P1;durP2;ratioP2;P2;SDS_P1;SDS_P2;PMS_P1;PMS_P2;Temp;Humidity;BMP_temperature;BMP_pressure;BME280_temperature;BME280_humidity;BME280_pressure;Samples;Min_cycle;Max_cycle;Signal;HPM_P1;HPM_P2
2024/03/07 00:01:58;;;;;;;;;;;;;;;6.14;47.77;100086.58;109401;1254;71415;-69
2024/03/07 00:04:25;;;;;;;;;;;;;;;6.02;47.70;100085.11;109091;1256;59672;-69
2024/03/07 00:06:52;;;;;;;;;;;;;;;5.88;47.93;100083.33;109112;1254;59046;-69
2024/03/07 00:09:24;;;;;;;;;;;;;;;5.88;47.86;100083.34;109408;1254;74706;-70
2024/03/07 00:11:51;;;;;;;;;;;;;;;5.99;47.39;100078.60;109424;1254;68821;-69
2024/03/07 00:14:20;;;;;;;;;;;;;;;5.91;47.26;100076.64;109433;1254;72799;-69
2024/03/07 00:16:48;;;;;;;;;;;;;;;5.86;47.14;100073.38;109444;1254;59977;-69
2024/03/07 00:19:15;;;;;;;;;;;;;;;5.85;46.96;100072.71;109192;1253;59016;-70
2024/03/07 00:21:43;;;;;;;;;;;;;;;5.92;46.78;100072.30;109582;1253;73428;-70
2024/03/07 00:24:10;;;;;;;;;;;;;;;5.89;46.49;100070.41;109565;1253;68795;-70
2024/03/07 00:26:38;;;;;;;;;;;;;;;5.95;46.38;100072.21;109558;1252;72703;-70
2024/03/07 00:29:06;;;;;;;;;;;;;;;5.89;46.49;100071.11;109547;1253;59416;-70
2024/03/07 00:31:52;;;;;;;;;;;;;;;5.80;46.53;100076.26;109330;1252;59872;-69
2024/03/07 00:34:20;;;;;;;;;;;;;;;5.95;46.45;100074.27;109568;1253;73503;-69
2024/03/07 00:36:52;;;;;;;;;;;;;;;6.07;46.34;100074.19;109600;1252;68728;-70
2024/03/07 00:39:20;;;;;;;;;;;;;;;6.00;46.60;100071.34;109345;1252;72760;-70
2024/03/07 00:41:47;;;;;;;;;;;;;;;6.12;46.65;100069.54;109248;1253;60965;-69
2024/03/07 00:44:15;;;;;;;;;;;;;;;6.13;46.59;100071.09;109335;1253;59036;-69
2024/03/07 00:46:42;;;;;;;;;;;;;;;6.11;46.48;100069.35;109614;1252;74683;-69
2024/03/07 00:49:10;;;;;;;;;;;;;;;6.05;46.40;100067.77;109579;1252;67240;-69
2024/03/07 00:51:39;;;;;;;;;;;;;;;5.92;46.45;100067.08;109259;1252;71466;-69
2024/03/07 00:54:07;;;;;;;;;;;;;;;5.93;46.58;100069.18;109548;1253;60880;-69
2024/03/07 00:56:36;;;;;;;;;;;;;;;5.98;46.24;100070.63;109614;1253;59001;-70
2024/03/07 00:59:03;;;;;;;;;;;;;;;5.97;46.09;100066.44;109570;1253;73436;-70
2024/03/07 01:01:33;;;;;;;;;;;;;;;5.98;45.91;100067.09;109558;1252;68808;-70
2024/03/07 01:04:01;;;;;;;;;;;;;;;6.03;45.73;100067.48;109629;1252;71874;-69
2024/03/07 01:06:28;;;;;;;;;;;;;;;6.08;45.76;100069.17;109563;1252;59685;-69
2024/03/07 01:08:56;;;;;;;;;;;;;;;6.08;45.59;100070.30;109336;1253;58944;-70
2024/03/07 01:11:23;;;;;;;;;;;;;;;6.06;45.55;100070.75;109559;1253;73801;-69
2024/03/07 01:13:51;;;;;;;;;;;;;;;5.92;45.66;100064.27;109577;1252;68988;-69
2024/03/07 01:16:19;;;;;;;;;;;;;;;5.86;45.92;100067.19;109537;1253;72746;-69
2024/03/07 01:18:47;;;;;;;;;;;;;;;5.89;46.18;100063.33;109582;1253;60908;-69
2024/03/07 01:21:14;;;;;;;;;;;;;;;5.82;45.90;100061.79;109605;1252;59059;-69
2024/03/07 01:23:42;;;;;;;;;;;;;;;5.73;46.24;100062.23;109610;1253;72881;-69
2024/03/07 01:26:09;;;;;;;;;;;;;;;5.71;46.41;100059.70;109277;1252;69005;-69
2024/03/07 01:28:37;;;;;;;;;;;;;;;5.77;46.30;100063.78;109315;1254;72934;-69
2024/03/07 01:31:04;;;;;;;;;;;;;;;5.58;46.43;100057.23;109608;1253;60881;-69
2024/03/07 01:33:32;;;;;;;;;;;;;;;5.54;46.52;100062.31;109608;1252;59866;-70
2024/03/07 01:35:59;;;;;;;;;;;;;;;5.48;46.28;100062.66;109636;1252;74695;-70
2024/03/07 01:38:27;;;;;;;;;;;;;;;5.33;46.51;100061.95;109553;1252;67215;-70
2024/03/07 01:40:54;;;;;;;;;;;;;;;5.39;46.46;100058.58;109629;1253;71445;-70
2024/03/07 01:43:22;;;;;;;;;;;;;;;5.48;46.27;100062.96;109577;1253;59605;-70
2024/03/07 01:45:50;;;;;;;;;;;;;;;5.39;46.19;100061.93;109585;1252;59321;-70
2024/03/07 01:48:20;;;;;;;;;;;;;;;5.29;46.06;100060.39;109456;1253;76682;-70
2024/03/07 01:50:47;;;;;;;;;;;;;;;5.37;46.10;100060.37;109303;1254;67700;-70
2024/03/07 01:53:15;;;;;;;;;;;;;;;5.45;46.09;100060.62;109608;1252;71447;-70
2024/03/07 01:55:44;;;;;;;;;;;;;;;5.35;45.95;100058.00;109268;1254;60954;-70
2024/03/07 01:58:11;;;;;;;;;;;;;;;5.48;45.91;100063.71;109633;1251;59884;-70
2024/03/07 02:00:39;;;;;;;;;;;;;;;5.56;45.92;100065.99;109572;1253;74719;-70
2024/03/07 02:03:06;;;;;;;;;;;;;;;5.52;45.92;100064.45;109603;1253;68473;-70
2024/03/07 02:05:34;;;;;;;;;;;;;;;5.32;45.68;100058.09;109619;1252;72732;-70
2024/03/07 02:08:01;;;;;;;;;;;;;;;5.24;46.02;100059.86;109562;1253;60946;-70
2024/03/07 02:10:29;;;;;;;;;;;;;;;5.23;45.89;100057.65;109568;1252;59887;-70
2024/03/07 02:12:56;;;;;;;;;;;;;;;5.38;45.74;100060.46;109631;1252;74719;-70
2024/03/07 02:15:24;;;;;;;;;;;;;;;5.37;45.87;100062.14;109600;1252;68844;-70
2024/03/07 02:17:51;;;;;;;;;;;;;;;5.19;45.66;100061.91;109625;1252;71445;-70
2024/03/07 02:20:19;;;;;;;;;;;;;;;5.15;45.88;100066.34;109579;1253;60963;-70
2024/03/07 02:22:46;;;;;;;;;;;;;;;5.22;45.88;100066.45;109574;1252;58996;-70
2024/03/07 02:25:15;;;;;;;;;;;;;;;5.22;45.97;100067.56;109586;1254;74715;-70
2024/03/07 02:27:45;;;;;;;;;;;;;;;5.26;45.80;100070.26;109583;1252;67552;-70
2024/03/07 02:30:13;;;;;;;;;;;;;;;5.13;45.88;100066.38;109583;1253;72733;-69
2024/03/07 02:32:40;;;;;;;;;;;;;;;5.14;45.96;100070.73;109572;1252;59647;-70
2024/03/07 02:35:08;;;;;;;;;;;;;;;5.15;46.14;100069.45;109236;1254;59913;-70
2024/03/07 02:37:36;;;;;;;;;;;;;;;5.27;45.97;100069.40;109575;1253;73446;-70
2024/03/07 02:40:03;;;;;;;;;;;;;;;5.26;45.72;100071.40;109478;1252;69031;-70
2024/03/07 02:42:31;;;;;;;;;;;;;;;5.14;45.62;100065.42;109483;1253;72712;-71
2024/03/07 02:44:59;;;;;;;;;;;;;;;5.25;45.71;100071.27;109550;1253;60894;-69
2024/03/07 02:47:27;;;;;;;;;;;;;;;5.21;45.53;100071.12;109562;1252;59978;-70
2024/03/07 02:49:56;;;;;;;;;;;;;;;5.31;45.46;100071.36;109624;1252;73865;-69
2024/03/07 02:52:23;;;;;;;;;;;;;;;5.05;45.49;100069.94;109590;1252;68857;-70
2024/03/07 02:54:51;;;;;;;;;;;;;;;5.05;45.54;100072.48;109618;1252;72897;-69
2024/03/07 02:57:18;;;;;;;;;;;;;;;5.14;45.22;100069.13;109601;1254;60940;-70
2024/03/07 02:59:46;;;;;;;;;;;;;;;5.08;45.44;100070.35;109583;1254;58826;-69
2024/03/07 03:02:13;;;;;;;;;;;;;;;5.09;45.32;100065.32;109619;1254;74877;-69
2024/03/07 03:04:41;;;;;;;;;;;;;;;5.03;45.50;100064.05;109627;1252;67613;-69
2024/03/07 03:07:08;;;;;;;;;;;;;;;4.94;45.66;100065.03;109622;1253;72690;-69
2024/03/07 03:09:39;;;;;;;;;;;;;;;5.15;45.37;100066.04;109554;1254;59936;-69
2024/03/07 03:12:08;;;;;;;;;;;;;;;5.16;44.87;100068.80;109562;1254;60215;-70
2024/03/07 03:14:35;;;;;;;;;;;;;;;5.15;44.87;100073.26;109624;1253;73725;-70
2024/03/07 03:17:03;;;;;;;;;;;;;;;5.12;45.04;100073.45;109648;1252;67633;-69
2024/03/07 03:19:30;;;;;;;;;;;;;;;5.25;44.90;100068.05;109261;1254;72747;-69
2024/03/07 03:21:58;;;;;;;;;;;;;;;5.24;44.60;100067.28;109555;1257;60971;-70
2024/03/07 03:24:27;;;;;;;;;;;;;;;4.97;45.23;100069.27;109329;1254;59850;-70
2024/03/07 03:26:54;;;;;;;;;;;;;;;5.17;44.88;100070.34;109462;1252;74721;-69
2024/03/07 03:29:22;;;;;;;;;;;;;;;5.33;44.73;100073.28;109588;1253;68851;-70
2024/03/07 03:31:49;;;;;;;;;;;;;;;5.29;44.84;100075.79;109575;1253;72692;-71
2024/03/07 03:34:17;;;;;;;;;;;;;;;5.26;44.94;100074.61;109578;1254;59661;-70
2024/03/07 03:36:44;;;;;;;;;;;;;;;5.25;44.98;100069.77;109655;1252;59062;-70
2024/03/07 03:39:13;;;;;;;;;;;;;;;5.17;45.22;100075.42;109626;1253;74692;-70
2024/03/07 03:41:41;;;;;;;;;;;;;;;5.05;45.46;100076.73;109605;1254;66470;-71
2024/03/07 03:44:08;;;;;;;;;;;;;;;4.89;45.26;100076.52;109294;1252;71403;-71
2024/03/07 03:46:36;;;;;;;;;;;;;;;4.99;44.82;100077.69;109242;1254;61498;-70
2024/03/07 03:49:06;;;;;;;;;;;;;;;5.07;44.61;100080.75;109593;1253;59925;-70
2024/03/07 03:51:33;;;;;;;;;;;;;;;5.15;44.57;100077.92;109637;1252;74730;-70
2024/03/07 03:54:00;;;;;;;;;;;;;;;5.32;44.46;100077.59;109622;1253;68007;-70
2024/03/07 03:56:28;;;;;;;;;;;;;;;5.23;44.62;100081.11;109583;1253;71855;-71
2024/03/07 03:58:55;;;;;;;;;;;;;;;5.03;45.07;100082.71;109635;1254;60997;-70
2024/03/07 04:01:23;;;;;;;;;;;;;;;5.08;45.02;100087.21;109588;1253;59369;-70
2024/03/07 04:03:51;;;;;;;;;;;;;;;5.20;44.97;100086.10;109700;1252;73414;-70
2024/03/07 04:06:18;;;;;;;;;;;;;;;5.19;44.86;100084.52;109786;1253;67462;-71
2024/03/07 04:08:46;;;;;;;;;;;;;;;5.34;44.80;100084.30;109598;1254;72749;-70
2024/03/07 04:11:13;;;;;;;;;;;;;;;5.14;44.97;100087.38;109558;1253;61070;-70
2024/03/07 04:13:41;;;;;;;;;;;;;;;5.13;44.56;100086.31;109580;1252;59046;-70
2024/03/07 04:16:08;;;;;;;;;;;;;;;5.23;44.37;100086.80;109608;1253;74710;-70
2024/03/07 04:18:36;;;;;;;;;;;;;;;5.30;44.21;100085.70;109470;1253;193284;-70
2024/03/07 04:21:04;;;;;;;;;;;;;;;5.28;44.62;100091.79;109603;1253;72710;-70
2024/03/07 04:23:31;;;;;;;;;;;;;;;5.27;44.80;100089.13;109602;1252;60928;-71
2024/03/07 04:25:59;;;;;;;;;;;;;;;5.10;45.20;100090.77;109291;1254;59914;-70
2024/03/07 04:28:27;;;;;;;;;;;;;;;5.11;45.44;100094.38;109599;1252;73710;-71
2024/03/07 04:30:55;;;;;;;;;;;;;;;4.96;45.45;100095.48;109603;1254;68558;-70
2024/03/07 04:33:23;;;;;;;;;;;;;;;5.00;45.14;100098.42;109266;1252;71464;-70
2024/03/07 04:35:52;;;;;;;;;;;;;;;5.17;44.94;100094.62;109567;1253;60921;-70
2024/03/07 04:38:19;;;;;;;;;;;;;;;5.21;44.80;100093.97;109249;1253;58983;-70
2024/03/07 04:40:47;;;;;;;;;;;;;;;5.02;45.02;100091.50;109620;1253;73450;-70
2024/03/07 04:43:15;;;;;;;;;;;;;;;4.98;45.16;100090.29;109581;1252;66274;-71
2024/03/07 04:45:43;;;;;;;;;;;;;;;5.14;45.00;100099.01;109639;1253;71417;-71
2024/03/07 04:48:12;;;;;;;;;;;;;;;5.23;45.01;100097.41;109582;1253;59635;-71
2024/03/07 04:50:39;;;;;;;;;;;;;;;5.24;45.03;100099.13;109564;1253;59269;-70
2024/03/07 04:53:07;;;;;;;;;;;;;;;5.00;45.17;100096.58;109568;1254;74760;-71
2024/03/07 04:55:34;;;;;;;;;;;;;;;4.96;45.48;100100.55;109652;1251;67738;-70
2024/03/07 04:58:02;;;;;;;;;;;;;;;4.99;45.57;100106.52;109647;1251;71397;-70
2024/03/07 05:00:30;;;;;;;;;;;;;;;4.83;45.79;100107.86;109600;1251;60887;-70
2024/03/07 05:02:58;;;;;;;;;;;;;;;4.93;45.90;100110.29;109659;1252;59866;-70
2024/03/07 05:05:26;;;;;;;;;;;;;;;4.94;45.77;100110.90;109597;1252;74776;-69
2024/03/07 05:07:55;;;;;;;;;;;;;;;4.97;45.62;100115.48;109602;1253;67599;-69
2024/03/07 05:10:23;;;;;;;;;;;;;;;4.81;45.75;100113.87;109560;1252;72715;-69
2024/03/07 05:12:51;;;;;;;;;;;;;;;4.85;45.67;100113.63;109235;1254;58948;-70
2024/03/07 05:15:18;;;;;;;;;;;;;;;4.97;45.51;100116.57;109459;1252;58936;-70
2024/03/07 05:17:46;;;;;;;;;;;;;;;4.97;45.26;100117.54;109608;1253;74652;-71
2024/03/07 05:20:13;;;;;;;;;;;;;;;4.94;45.24;100120.73;109665;1253;68494;-71
2024/03/07 05:22:47;;;;;;;;;;;;;;;4.71;45.23;100119.38;109560;1252;73135;-71
2024/03/07 05:25:16;;;;;;;;;;;;;;;4.71;45.24;100121.46;109578;1253;59638;-72
2024/03/07 05:27:44;;;;;;;;;;;;;;;4.83;45.23;100123.62;109610;1253;59889;-71
2024/03/07 05:30:13;;;;;;;;;;;;;;;4.90;45.10;100125.52;109596;1253;73504;-70
2024/03/07 05:32:41;;;;;;;;;;;;;;;4.84;45.22;100125.41;109617;1254;68507;-71
2024/03/07 05:35:08;;;;;;;;;;;;;;;4.84;45.27;100125.80;109583;1252;71360;-71
2024/03/07 05:37:36;;;;;;;;;;;;;;;4.73;45.46;100126.95;109425;1254;59658;-71
2024/03/07 05:40:03;;;;;;;;;;;;;;;4.42;45.81;100127.96;109481;1253;59079;-71
2024/03/07 05:42:31;;;;;;;;;;;;;;;4.53;45.71;100128.05;109507;1253;73422;-70
2024/03/07 05:44:59;;;;;;;;;;;;;;;4.75;45.46;100129.98;109474;1254;67554;-69
2024/03/07 05:47:27;;;;;;;;;;;;;;;4.71;45.37;100126.50;109472;1254;72733;-70
2024/03/07 05:49:55;;;;;;;;;;;;;;;4.75;45.03;100127.52;109168;1254;59933;-70
2024/03/07 05:52:22;;;;;;;;;;;;;;;4.89;45.00;100129.35;109390;1254;60285;-70
2024/03/07 05:54:49;;;;;;;;;;;;;;;4.82;45.00;100130.69;109311;1254;73554;-70
2024/03/07 05:57:17;;;;;;;;;;;;;;;4.85;44.84;100131.32;109361;1257;68032;-71
2024/03/07 05:59:46;;;;;;;;;;;;;;;4.71;44.61;100135.08;109462;1254;71515;-70
2024/03/07 06:02:15;;;;;;;;;;;;;;;4.68;44.55;100137.41;109505;1253;60910;-71
2024/03/07 06:04:43;;;;;;;;;;;;;;;4.74;44.33;100138.33;109451;1254;60018;-69
2024/03/07 06:07:11;;;;;;;;;;;;;;;4.64;44.52;100142.77;109187;1254;74715;-70
2024/03/07 06:09:38;;;;;;;;;;;;;;;4.64;44.49;100142.06;109600;1253;67387;-70
2024/03/07 06:12:08;;;;;;;;;;;;;;;4.56;44.07;100147.81;109572;1253;72769;-72
2024/03/07 06:14:49;;;;;;;;;;;;;;;4.60;44.10;100151.34;109612;1254;59632;-71
2024/03/07 06:17:21;;;;;;;;;;;;;;;4.56;44.03;100152.07;109588;1254;59978;-69
2024/03/07 06:19:49;;;;;;;;;;;;;;;4.84;43.44;100151.92;109591;1253;74669;-71
2024/03/07 06:22:17;;;;;;;;;;;;;;;5.03;43.03;100151.72;109609;1252;68789;-70
2024/03/07 06:24:44;;;;;;;;;;;;;;;4.98;43.22;100151.52;109648;1253;72709;-70
2024/03/07 06:27:26;;;;;;;;;;;;;;;4.88;43.52;100152.39;109651;1254;60476;-69
2024/03/07 06:29:54;;;;;;;;;;;;;;;4.62;43.40;100148.08;109686;1254;58944;-72
2024/03/07 06:32:22;;;;;;;;;;;;;;;4.81;43.50;100151.27;109258;1253;74736;-69
2024/03/07 06:34:50;;;;;;;;;;;;;;;5.07;43.31;100151.65;108550;1254;1002461;-70
2024/03/07 06:37:18;;;;;;;;;;;;;;;5.01;43.34;100149.11;109646;1253;71470;-70
2024/03/07 06:39:47;;;;;;;;;;;;;;;4.81;43.36;100145.83;109633;1253;60931;-71
2024/03/07 06:42:15;;;;;;;;;;;;;;;4.72;43.32;100148.60;109597;1254;58984;-71
2024/03/07 06:44:43;;;;;;;;;;;;;;;4.71;43.14;100151.09;109460;1254;74670;-72
2024/03/07 06:47:11;;;;;;;;;;;;;;;4.74;43.33;100152.11;109252;1252;68819;-71
2024/03/07 06:49:39;;;;;;;;;;;;;;;4.82;43.14;100148.98;109598;1252;71183;-71
2024/03/07 06:52:08;;;;;;;;;;;;;;;4.86;43.26;100148.30;109582;1254;59630;-71
2024/03/07 06:54:35;;;;;;;;;;;;;;;4.98;43.31;100155.44;109612;1254;59931;-71
2024/03/07 06:57:03;;;;;;;;;;;;;;;5.21;42.76;100158.21;109630;1251;74723;-70
2024/03/07 06:59:31;;;;;;;;;;;;;;;5.20;42.67;100155.43;109159;1252;68919;-70
2024/03/07 07:01:59;;;;;;;;;;;;;;;4.89;42.96;100156.66;109587;1254;71424;-70
2024/03/07 07:04:31;;;;;;;;;;;;;;;4.97;43.02;100155.56;109575;1254;61113;-70
2024/03/07 07:07:00;;;;;;;;;;;;;;;5.07;42.77;100156.31;109571;1255;59971;-70
2024/03/07 07:09:28;;;;;;;;;;;;;;;5.09;43.15;100158.89;109605;1258;76511;-71
2024/03/07 07:11:56;;;;;;;;;;;;;;;4.99;43.11;100158.47;109626;1254;67656;-71
2024/03/07 07:14:23;;;;;;;;;;;;;;;4.88;43.11;100160.09;108831;1252;1002317;-71
2024/03/07 07:16:52;;;;;;;;;;;;;;;4.73;43.48;100156.33;109171;1257;59225;-71
2024/03/07 07:19:20;;;;;;;;;;;;;;;4.91;43.18;100161.13;109305;1252;58949;-71
2024/03/07 07:21:49;;;;;;;;;;;;;;;4.84;42.88;100163.10;109146;1257;72578;-71
2024/03/07 07:24:17;;;;;;;;;;;;;;;4.84;43.03;100163.60;109591;1254;67771;-71
2024/03/07 07:26:44;;;;;;;;;;;;;;;4.98;43.06;100166.73;109560;1254;71413;-70
2024/03/07 07:29:11;;;;;;;;;;;;;;;5.08;42.94;100172.45;109587;1253;60928;-70
2024/03/07 07:31:39;;;;;;;;;;;;;;;5.04;42.54;100175.02;109617;1252;59840;-70
2024/03/07 07:34:06;;;;;;;;;;;;;;;4.94;42.80;100179.59;109588;1253;73441;-70
2024/03/07 07:36:34;;;;;;;;;;;;;;;4.88;42.41;100179.36;109548;1254;68945;-70
2024/03/07 07:39:03;;;;;;;;;;;;;;;4.98;42.24;100179.95;109512;1252;73048;-69
2024/03/07 07:41:31;;;;;;;;;;;;;;;5.04;42.23;100179.77;109632;1254;58978;-70
2024/03/07 07:43:59;;;;;;;;;;;;;;;5.09;42.08;100180.11;109589;1254;59862;-69
2024/03/07 07:46:26;;;;;;;;;;;;;;;5.19;41.94;100186.59;109623;1254;73723;-71
2024/03/07 07:48:55;;;;;;;;;;;;;;;5.19;41.68;100185.94;109569;1253;67457;-71
2024/03/07 07:51:25;;;;;;;;;;;;;;;5.04;41.75;100183.33;109477;1253;72984;-69
2024/03/07 07:53:54;;;;;;;;;;;;;;;4.99;41.69;100185.16;109454;1255;59299;-70
2024/03/07 07:56:21;;;;;;;;;;;;;;;5.29;41.27;100187.98;109250;1260;59708;-70
2024/03/07 07:58:52;;;;;;;;;;;;;;;5.42;40.94;100190.55;109631;1253;74766;-70
2024/03/07 08:01:19;;;;;;;;;;;;;;;5.54;41.30;100190.33;109631;1251;68794;-70
2024/03/07 08:03:47;;;;;;;;;;;;;;;5.49;41.05;100189.05;109674;1251;72698;-70
2024/03/07 08:06:14;;;;;;;;;;;;;;;5.40;41.13;100186.40;109636;1251;60903;-70
2024/03/07 08:08:42;;;;;;;;;;;;;;;5.48;41.13;100190.48;109588;1251;59644;-70
2024/03/07 08:11:11;;;;;;;;;;;;;;;5.54;40.86;100191.11;109630;1251;73475;-71
2024/03/07 08:13:42;;;;;;;;;;;;;;;5.48;41.04;100190.41;109597;1251;69040;-70
2024/03/07 08:16:11;;;;;;;;;;;;;;;5.35;41.05;100188.27;109594;1251;72733;-70
2024/03/07 08:18:38;;;;;;;;;;;;;;;5.32;41.11;100190.29;109333;1254;58908;-69
2024/03/07 08:21:06;;;;;;;;;;;;;;;5.32;41.07;100189.17;109600;1251;59825;-71
2024/03/07 08:23:33;;;;;;;;;;;;;;;5.32;40.93;100190.98;109677;1251;73415;-70
2024/03/07 08:26:01;;;;;;;;;;;;;;;5.73;40.91;100192.66;109673;1251;66904;-70
2024/03/07 08:28:28;;;;;;;;;;;;;;;5.95;40.33;100185.61;109681;1251;72357;-70
2024/03/07 08:30:56;;;;;;;;;;;;;;;6.15;40.16;100189.92;109624;1251;59255;-70
2024/03/07 08:33:23;;;;;;;;;;;;;;;6.19;39.76;100190.98;109677;1251;59070;-71
2024/03/07 08:35:52;;;;;;;;;;;;;;;6.25;39.93;100191.41;109685;1251;73677;-70
2024/03/07 08:38:20;;;;;;;;;;;;;;;6.31;39.70;100192.58;109693;1251;67553;-69
2024/03/07 08:40:48;;;;;;;;;;;;;;;6.22;39.50;100193.64;109829;1251;71405;-70
2024/03/07 08:43:15;;;;;;;;;;;;;;;6.36;39.67;100196.05;109668;1253;58938;-70
2024/03/07 08:45:43;;;;;;;;;;;;;;;6.23;39.63;100192.60;109686;1251;58951;-70
2024/03/07 08:48:11;;;;;;;;;;;;;;;6.10;39.65;100187.67;109298;1251;74811;-71
2024/03/07 08:50:39;;;;;;;;;;;;;;;6.00;39.61;100187.09;109513;1251;68793;-70
2024/03/07 08:53:07;;;;;;;;;;;;;;;6.18;39.83;100190.48;109673;1251;70944;-71
2024/03/07 08:55:36;;;;;;;;;;;;;;;6.39;39.46;100189.39;109581;1254;58941;-71
2024/03/07 08:58:06;;;;;;;;;;;;;;;6.28;39.22;100192.67;109644;1253;59861;-70
2024/03/07 09:00:35;;;;;;;;;;;;;;;6.51;39.32;100196.45;109643;1252;74724;-69
2024/03/07 09:03:09;;;;;;;;;;;;;;;6.40;39.03;100192.77;109546;1252;67644;-70
2024/03/07 09:05:39;;;;;;;;;;;;;;;6.20;39.15;100190.92;109338;1253;72761;-70
2024/03/07 09:08:07;;;;;;;;;;;;;;;6.24;38.92;100191.95;109584;1252;59311;-70
2024/03/07 09:10:35;;;;;;;;;;;;;;;6.36;39.16;100192.73;109610;1253;59019;-69
2024/03/07 09:13:03;;;;;;;;;;;;;;;6.43;39.49;100189.29;109340;1252;73452;-70
2024/03/07 09:15:31;;;;;;;;;;;;;;;6.27;39.45;100185.50;109628;1254;67583;-70
2024/03/07 09:17:59;;;;;;;;;;;;;;;6.07;39.52;100187.36;109583;1253;72708;-70
2024/03/07 09:20:26;;;;;;;;;;;;;;;6.12;39.44;100184.92;109414;1254;59299;-69
2024/03/07 09:22:54;;;;;;;;;;;;;;;6.15;39.17;100188.15;109136;1254;59922;-70
2024/03/07 09:25:24;;;;;;;;;;;;;;;6.18;39.18;100189.38;109086;1254;74747;-70
2024/03/07 09:27:54;;;;;;;;;;;;;;;6.19;39.17;100183.27;109312;1254;67623;-70
2024/03/07 09:30:25;;;;;;;;;;;;;;;6.14;39.49;100184.64;109312;1254;72976;-69
2024/03/07 09:32:57;;;;;;;;;;;;;;;6.36;39.61;100186.53;109232;1256;59066;-69
2024/03/07 09:35:24;;;;;;;;;;;;;;;6.47;39.17;100185.27;109326;1254;59830;-70
2024/03/07 09:37:53;;;;;;;;;;;;;;;6.48;38.89;100189.61;109343;1254;73495;-69
2024/03/07 09:40:24;;;;;;;;;;;;;;;6.38;39.05;100189.20;109327;1254;67943;-70
2024/03/07 09:42:54;;;;;;;;;;;;;;;6.53;39.12;100192.54;109320;1254;71564;-69
2024/03/07 09:45:22;;;;;;;;;;;;;;;6.46;39.31;100191.58;109305;1256;58975;-69
2024/03/07 09:47:51;;;;;;;;;;;;;;;6.54;39.09;100190.64;109292;1254;59065;-70
2024/03/07 09:50:23;;;;;;;;;;;;;;;6.62;38.76;100193.33;109148;1254;74723;-69
2024/03/07 09:52:52;;;;;;;;;;;;;;;6.91;38.64;100194.63;109576;1253;68849;-69
2024/03/07 09:55:22;;;;;;;;;;;;;;;6.69;39.24;100188.20;109601;1251;73226;-70
2024/03/07 09:57:50;;;;;;;;;;;;;;;6.56;39.24;100187.08;109252;1254;58955;-70
2024/03/07 10:00:22;;;;;;;;;;;;;;;6.58;39.16;100189.65;109343;1253;59074;-69
2024/03/07 10:02:55;;;;;;;;;;;;;;;7.02;38.32;100192.38;109637;1252;74708;-70
2024/03/07 10:05:23;;;;;;;;;;;;;;;7.10;38.10;100191.95;109607;1254;68853;-69
2024/03/07 10:07:52;;;;;;;;;;;;;;;7.03;38.27;100193.27;109646;1254;71438;-70
2024/03/07 10:10:21;;;;;;;;;;;;;;;7.19;38.58;100188.24;109616;1254;58978;-70
2024/03/07 10:12:50;;;;;;;;;;;;;;;7.16;38.46;100192.95;109583;1253;59764;-70
2024/03/07 10:15:19;;;;;;;;;;;;;;;7.18;38.69;100192.08;109292;1254;74782;-70
2024/03/07 10:17:46;;;;;;;;;;;;;;;7.28;38.40;100191.34;107733;1254;1003023;-70
2024/03/07 10:20:14;;;;;;;;;;;;;;;7.22;38.53;100191.83;109613;1254;72729;-70
2024/03/07 10:22:42;;;;;;;;;;;;;;;7.03;38.70;100189.70;109246;1253;59361;-70
2024/03/07 10:25:10;;;;;;;;;;;;;;;7.09;38.94;100192.37;109553;1254;59047;-70
2024/03/07 10:27:42;;;;;;;;;;;;;;;7.24;38.47;100192.64;109403;1253;74744;-70
2024/03/07 10:30:09;;;;;;;;;;;;;;;6.93;38.50;100187.26;109564;1253;68891;-70
2024/03/07 10:32:37;;;;;;;;;;;;;;;6.88;38.54;100186.66;109601;1254;72799;-70
2024/03/07 10:35:06;;;;;;;;;;;;;;;6.87;38.69;100185.08;109613;1253;58985;-70
2024/03/07 10:37:35;;;;;;;;;;;;;;;6.99;38.93;100184.48;109662;1252;59012;-70
2024/03/07 10:40:15;;;;;;;;;;;;;;;7.02;38.55;100183.97;109638;1253;73476;-71
2024/03/07 10:42:45;;;;;;;;;;;;;;;7.11;38.43;100185.42;109369;1252;68714;-70
2024/03/07 10:45:13;;;;;;;;;;;;;;;7.19;38.51;100188.45;109612;1252;72702;-70
2024/03/07 10:47:40;;;;;;;;;;;;;;;7.33;38.24;100185.92;109617;1253;59297;-70
2024/03/07 10:50:15;;;;;;;;;;;;;;;7.45;37.50;100185.67;109638;1253;61982;-71
2024/03/07 10:52:50;;;;;;;;;;;;;;;7.28;37.78;100180.86;109650;1252;74592;-71
2024/03/07 10:55:23;;;;;;;;;;;;;;;6.95;37.99;100181.50;109550;1253;68917;-70
2024/03/07 10:57:55;;;;;;;;;;;;;;;7.23;38.31;100182.92;109626;1253;72688;-71
2024/03/07 11:00:35;;;;;;;;;;;;;;;7.49;37.31;100180.95;109490;1254;59314;-70
2024/03/07 11:03:06;;;;;;;;;;;;;;;7.51;37.41;100184.44;109653;1251;59856;-71
2024/03/07 11:05:34;;;;;;;;;;;;;;;7.42;37.63;100181.46;109361;1251;73671;-70
2024/03/07 11:08:07;;;;;;;;;;;;;;;7.46;37.71;100183.48;109658;1251;67549;-70
2024/03/07 11:10:34;;;;;;;;;;;;;;;7.51;37.49;100180.31;109632;1251;71103;-70
2024/03/07 11:13:02;;;;;;;;;;;;;;;7.40;37.59;100181.94;109631;1251;59470;-71
2024/03/07 11:15:31;;;;;;;;;;;;;;;7.35;37.87;100184.23;109720;1251;59111;-70
2024/03/07 11:17:59;;;;;;;;;;;;;;;7.60;37.76;100178.85;108158;1251;1002260;-70
2024/03/07 11:20:27;;;;;;;;;;;;;;;7.86;37.52;100181.73;109659;1251;69248;-70
2024/03/07 11:22:55;;;;;;;;;;;;;;;7.89;36.95;100177.56;109436;1254;72715;-71
2024/03/07 11:25:22;;;;;;;;;;;;;;;7.67;36.75;100176.23;109287;1256;59359;-71
2024/03/07 11:27:53;;;;;;;;;;;;;;;7.64;36.57;100177.38;109385;1254;60432;-70
2024/03/07 11:30:22;;;;;;;;;;;;;;;7.96;36.37;100179.91;109444;1254;74695;-70
2024/03/07 11:32:53;;;;;;;;;;;;;;;8.11;35.67;100173.84;109183;1254;68914;-70
2024/03/07 11:35:27;;;;;;;;;;;;;;;8.03;35.42;100170.96;109400;1254;72776;-70
2024/03/07 11:37:59;;;;;;;;;;;;;;;8.15;36.09;100169.98;109389;1255;58952;-70
2024/03/07 11:40:48;;;;;;;;;;;;;;;8.19;36.37;100167.73;109409;1254;59828;-71
2024/03/07 11:43:16;;;;;;;;;;;;;;;7.93;36.56;100166.98;109424;1254;73654;-70
2024/03/07 11:45:52;;;;;;;;;;;;;;;8.05;36.03;100165.41;109389;1254;68509;-69
2024/03/07 11:48:21;;;;;;;;;;;;;;;8.12;35.91;100164.48;109323;1254;71881;-71
2024/03/07 11:50:50;;;;;;;;;;;;;;;7.96;35.90;100164.25;109276;1254;59675;-69
2024/03/07 11:53:18;;;;;;;;;;;;;;;8.01;36.70;100162.35;109440;1254;59310;-69
2024/03/07 11:55:45;;;;;;;;;;;;;;;7.96;36.67;100160.45;109638;1253;74683;-70
2024/03/07 11:58:16;;;;;;;;;;;;;;;8.08;36.96;100163.05;109435;1253;68795;-70
2024/03/07 12:00:44;;;;;;;;;;;;;;;8.28;36.86;100157.27;109610;1252;74579;-70
2024/03/07 12:03:20;;;;;;;;;;;;;;;8.34;36.59;100157.39;109612;1253;60358;-70
2024/03/07 12:05:51;;;;;;;;;;;;;;;8.26;36.44;100158.36;109592;1253;61823;-70
2024/03/07 12:08:22;;;;;;;;;;;;;;;8.40;36.45;100161.36;109356;1253;76724;-70
2024/03/07 12:10:55;;;;;;;;;;;;;;;8.26;36.17;100153.79;109628;1253;70437;-70
2024/03/07 12:13:25;;;;;;;;;;;;;;;7.98;36.68;100152.06;109594;1253;74910;-70
2024/03/07 12:15:52;;;;;;;;;;;;;;;7.76;36.71;100153.31;109573;1253;60404;-69
2024/03/07 12:18:20;;;;;;;;;;;;;;;7.58;36.91;100148.80;109571;1253;60444;-70
2024/03/07 12:20:53;;;;;;;;;;;;;;;7.68;36.88;100147.09;109536;1252;74844;-70
2024/03/07 12:23:24;;;;;;;;;;;;;;;7.65;37.15;100146.55;109596;1253;71362;-69
2024/03/07 12:25:59;;;;;;;;;;;;;;;7.73;37.07;100143.45;109563;1252;73819;-70
2024/03/07 12:28:26;;;;;;;;;;;;;;;8.00;36.81;100139.27;109577;1253;61942;-70
2024/03/07 12:30:57;;;;;;;;;;;;;;;8.28;36.61;100140.08;109606;1252;59298;-70
2024/03/07 12:33:27;;;;;;;;;;;;;;;8.23;36.53;100137.38;109619;1253;74704;-70
2024/03/07 12:36:05;;;;;;;;;;;;;;;8.12;36.58;100136.52;109621;1252;69101;-70
2024/03/07 12:38:37;;;;;;;;;;;;;;;8.06;36.41;100134.54;109565;1252;75077;-70
2024/03/07 12:41:16;;;;;;;;;;;;;;;8.13;36.55;100133.30;107311;1252;1002259;-71
2024/03/07 12:43:47;;;;;;;;;;;;;;;8.10;36.71;100130.74;109552;1253;60682;-70